Página principal
METAR-TAF:

METAR-TAF

Aeroportos :

Aeroporto Port Bouet

Abidjan, Costa do Marfim

latitude: 05-15N, longitude: 003-56W, altura: 7 m

Observação actual do tempo

O boletim foi feito há 31 minutos, às 16:30 UTC
Vento 9 kt de sudoeste
Temperatura 27°C
Humidade 79%
Pressão 1012 hPa
Visibilidade: 8000 m
Nuvens dispersasa uma altura de 1200 ft
Nuvens fragmentadasa uma altura de 4000 ft

METAR: DIAP 231630Z 23009KT 8000 SCT012 BKN040 27/23 Q1012 NOSIG

Hora: 17:01 (17:01 UTC)

Previsão

O boletim foi feito há 6 horas e 1 minutos, às 11:00 UTC
Previsão válida de 23 às 12 UTC a 24 às 18 UTC
Vento 10 kt de oes-sudoeste
Visibilidade: 8000 m
Nuvens dispersasa uma altura de 1200 ft
Tornando-se
de 24 às 06 UTC a 24 às 09 UTC
Nuvens fragmentadasa uma altura de 1200 ft
Poucas nuvensa uma altura de 2000 ft, Cumulonimbus.
trovoada

TAF: DIAP 231100Z 2312/2418 24010KT 8000 SCT012 BECMG 2406/2409 TS BKN012 FEW020CB

Observações e previsões do tempo de mais de 4000 aeroportos (mensagens METAR e TAF).

As estações disponíveis são os pontos amarelos e vermelhos sobre o mapa.

Mova o rato sobre o mapa para ver o nome da estação.

Depois clique no ponto para visualizar as observações e previsões meteorológicas.

Para alterar o mapa : clique nos botões verdes com uma cruz preta para aumentar o zoom; no botão verde com uma pitada de zoom; ou nas setas verdes para mapas adjacentes.


METAR-TAF: